Terminal Aerodrome Forecast
Issued by NWS

Home | Current Version | Previous Version | Text Only | Print | Product List | Glossary Off
Versions: 1 2 3 4 5 6 7 8 9 10 11 12 13 14 15 16 17 18 19 20 21

935
FTUS42 KMHX 200525
TAFPGV
TAF
KPGV 200525Z 2006/2106 22011KT P6SM VCSH BKN025
     FM200800 23005KT P6SM VCSH BKN018
     FM201200 24006KT 6SM -SHRA BKN018
     FM201500 VRB03KT 3SM SHRA VCTS BKN020CB
     FM210000 VRB04KT 6SM -SHRA OVC025
      AMD LTD TO CLD VIS AND WIND=

USA.gov is the U.S. government's official web portal to all federal, state and local government web resources and services.